Hanjin Ottawa — DANM — position and weather

sailwx.info

Track history (hours):
 
Tides and Currents Weather Stations Pressure Air Temp Water Temp Dewpoint Dewpoint Depression Visibility Wind Speed Wind Dir Waves Ship Positions

Hanjin Ottawa

Last reported at 2014-Nov-19 16:33 UTC. Time now 2014-Nov-24 01:06 UTC.
Position N 31°06' E 122°25'.

Length 278.8 m; beam 40.3 m; draft 14 m.

Type: Ship. MMSI: 211378360.

Date/timePositionNaut miles runAvg speedWind from/ knotsBaromVisibWave heightAir tempDewpointWater temp
2014-Nov-19 16:33N 31°06' E 122°25'1414.0
2014-Nov-19 15:33N 31°11' E 122°10'1414.5
2014-Nov-19 14:33N 31°16' E 121°54'1312.7
2014-Nov-19 13:33N 31°20' E 121°40'0 0.2
2014-Nov-19 12:33N 31°20' E 121°40'0 0.0
2014-Nov-19 11:33N 31°20' E 121°40'0 0.0
2014-Nov-19 10:33N 31°20' E 121°40'0 0.0
2014-Nov-19 09:33N 31°20' E 121°40'0 0.0
2014-Nov-19 08:33N 31°20' E 121°40'0 0.0
2014-Nov-19 07:33N 31°20' E 121°40'0 0.0
2014-Nov-19 06:33N 31°20' E 121°40'0 0.0
2014-Nov-19 05:33N 31°20' E 121°40'0 0.0
2014-Nov-19 04:33N 31°20' E 121°40'0 0.0
2014-Nov-19 03:33N 31°20' E 121°40'0 0.1
2014-Nov-19 02:33N 31°20' E 121°40'0 0.1
2014-Nov-19 01:33N 31°20' E 121°40'0 0.0
2014-Nov-19 00:33N 31°20' E 121°40'0 0.0
2014-Nov-18 23:33N 31°20' E 121°40'0 0.0
2014-Nov-18 22:33N 31°20' E 121°40'0 0.0
2014-Nov-18 21:33N 31°20' E 121°40'0 0.0
2014-Nov-18 20:33N 31°20' E 121°40'0 0.1
2014-Nov-18 19:33N 31°20' E 121°40'0 0.0
2014-Nov-18 18:33N 31°20' E 121°40'0 0.1
2014-Nov-18 17:33N 31°20' E 121°40'0 0.0
2014-Nov-18 16:33N 31°20' E 121°40'0 0.0
2014-Nov-18 15:33N 31°20' E 121°40'0 0.0
2014-Nov-18 14:33N 31°20' E 121°40'0 0.0
2014-Nov-18 13:33N 31°20' E 121°40'5 5.0
2014-Nov-18 12:33N 31°19' E 121°45'1010.2
2014-Nov-18 11:33N 31°15' E 121°57'1010.2
2014-Nov-18 10:33N 31°12' E 122°08'1110.4
2014-Nov-18 09:32N 31°06' E 122°18'8 8.2
2014-Nov-18 08:33N 31°06' E 122°27'72 7.8
2014-Nov-17 23:24N 29°56' E 122°48'1011.3
2014-Nov-17 22:33N 29°50' E 122°40'1110.7
2014-Nov-17 21:33N 29°41' E 122°32'1111.1
2014-Nov-17 20:33N 29°44' E 122°19'1212.2
2014-Nov-17 19:33N 29°54' E 122°10'1413.7
2014-Nov-17 18:33N 29°57' E 121°55'4 4.1
2014-Nov-17 17:33N 29°57' E 121°50'0 0.0
2014-Nov-17 16:33N 29°57' E 121°50'0 0.0
2014-Nov-17 15:33N 29°57' E 121°50'0 0.0
2014-Nov-17 14:33N 29°57' E 121°50'0 0.0
2014-Nov-17 13:33N 29°57' E 121°50'0 0.0
2014-Nov-17 12:33N 29°57' E 121°50'0 0.0
2014-Nov-17 11:33N 29°57' E 121°50'0 0.0
2014-Nov-17 10:33N 29°57' E 121°50'0 0.0
2014-Nov-17 09:33N 29°57' E 121°50'0 0.0
2014-Nov-17 08:33N 29°57' E 121°50'0 0.0
2014-Nov-17 07:33N 29°57' E 121°50'0 0.0
2014-Nov-17 06:32N 29°57' E 121°50'0 0.0
2014-Nov-17 05:32N 29°57' E 121°50'0 0.0
2014-Nov-17 04:33N 29°57' E 121°50'0 0.1
2014-Nov-17 03:33N 29°57' E 121°50'8 8.2
2014-Nov-17 02:33N 29°57' E 121°60'1312.9
2014-Nov-17 01:33N 29°51' E 122°13'10 9.6
2014-Nov-17 00:33N 29°45' E 122°21'7 6.7
2014-Nov-16 23:34N 29°43' E 122°29'7 6.7
2014-Nov-16 22:33N 29°47' E 122°35'1010.2
2014-Nov-16 21:32N 29°52' E 122°45'  
Track history (hours):
 
Tides and Currents Weather Stations Pressure Air Temp Water Temp Dewpoint Dewpoint Depression Visibility Wind Speed Wind Dir Waves Ship Positions

Hanjin Ottawa

Last reported at 2014-Nov-19 16:33 UTC. Time now 2014-Nov-24 01:06 UTC.
Position N 31°06' E 122°25'.

Length 278.8 m; beam 40.3 m; draft 14 m.

Type: Ship. MMSI: 211378360.

Date/timePositionNaut miles runAvg speedWind from/ knotsBaromVisibWave heightAir tempDewpointWater temp
2014-Nov-19 16:33N 31°06' E 122°25'1414.0
2014-Nov-19 15:33N 31°11' E 122°10'1414.5
2014-Nov-19 14:33N 31°16' E 121°54'1312.7
2014-Nov-19 13:33N 31°20' E 121°40'0 0.2
2014-Nov-19 12:33N 31°20' E 121°40'0 0.0
2014-Nov-19 11:33N 31°20' E 121°40'0 0.0
2014-Nov-19 10:33N 31°20' E 121°40'0 0.0
2014-Nov-19 09:33N 31°20' E 121°40'0 0.0
2014-Nov-19 08:33N 31°20' E 121°40'0 0.0
2014-Nov-19 07:33N 31°20' E 121°40'0 0.0
2014-Nov-19 06:33N 31°20' E 121°40'0 0.0
2014-Nov-19 05:33N 31°20' E 121°40'0 0.0
2014-Nov-19 04:33N 31°20' E 121°40'0 0.0
2014-Nov-19 03:33N 31°20' E 121°40'0 0.1
2014-Nov-19 02:33N 31°20' E 121°40'0 0.1
2014-Nov-19 01:33N 31°20' E 121°40'0 0.0
2014-Nov-19 00:33N 31°20' E 121°40'0 0.0
2014-Nov-18 23:33N 31°20' E 121°40'0 0.0
2014-Nov-18 22:33N 31°20' E 121°40'0 0.0
2014-Nov-18 21:33N 31°20' E 121°40'0 0.0
2014-Nov-18 20:33N 31°20' E 121°40'0 0.1
2014-Nov-18 19:33N 31°20' E 121°40'0 0.0
2014-Nov-18 18:33N 31°20' E 121°40'0 0.1
2014-Nov-18 17:33N 31°20' E 121°40'0 0.0
2014-Nov-18 16:33N 31°20' E 121°40'0 0.0
2014-Nov-18 15:33N 31°20' E 121°40'0 0.0
2014-Nov-18 14:33N 31°20' E 121°40'0 0.0
2014-Nov-18 13:33N 31°20' E 121°40'5 5.0
2014-Nov-18 12:33N 31°19' E 121°45'1010.2
2014-Nov-18 11:33N 31°15' E 121°57'1010.2
2014-Nov-18 10:33N 31°12' E 122°08'1110.4
2014-Nov-18 09:32N 31°06' E 122°18'8 8.2
2014-Nov-18 08:33N 31°06' E 122°27'72 7.8
2014-Nov-17 23:24N 29°56' E 122°48'1011.3
2014-Nov-17 22:33N 29°50' E 122°40'1110.7
2014-Nov-17 21:33N 29°41' E 122°32'1111.1
2014-Nov-17 20:33N 29°44' E 122°19'1212.2
2014-Nov-17 19:33N 29°54' E 122°10'1413.7
2014-Nov-17 18:33N 29°57' E 121°55'4 4.1
2014-Nov-17 17:33N 29°57' E 121°50'0 0.0
2014-Nov-17 16:33N 29°57' E 121°50'0 0.0
2014-Nov-17 15:33N 29°57' E 121°50'0 0.0
2014-Nov-17 14:33N 29°57' E 121°50'0 0.0
2014-Nov-17 13:33N 29°57' E 121°50'0 0.0
2014-Nov-17 12:33N 29°57' E 121°50'0 0.0
2014-Nov-17 11:33N 29°57' E 121°50'0 0.0
2014-Nov-17 10:33N 29°57' E 121°50'0 0.0
2014-Nov-17 09:33N 29°57' E 121°50'0 0.0
2014-Nov-17 08:33N 29°57' E 121°50'0 0.0
2014-Nov-17 07:33N 29°57' E 121°50'0 0.0
2014-Nov-17 06:32N 29°57' E 121°50'0 0.0
2014-Nov-17 05:32N 29°57' E 121°50'0 0.0
2014-Nov-17 04:33N 29°57' E 121°50'0 0.1
2014-Nov-17 03:33N 29°57' E 121°50'8 8.2
2014-Nov-17 02:33N 29°57' E 121°60'1312.9
2014-Nov-17 01:33N 29°51' E 122°13'10 9.6
2014-Nov-17 00:33N 29°45' E 122°21'7 6.7
2014-Nov-16 23:34N 29°43' E 122°29'7 6.7
2014-Nov-16 22:33N 29°47' E 122°35'1010.2
2014-Nov-16 21:32N 29°52' E 122°45'  

Dump ship's entire track history